sensor_id;sensor_type;location;lat;lon;timestamp;temperature;humidity
69823;SHT31;57119;52.516;13.508;2022-09-24T00:01:48;9.75;91.94
69823;SHT31;57119;52.516;13.508;2022-09-24T00:04:15;9.71;91.88
69823;SHT31;57119;52.516;13.508;2022-09-24T00:06:46;9.61;91.92
69823;SHT31;57119;52.516;13.508;2022-09-24T00:09:14;9.57;92.04
69823;SHT31;57119;52.516;13.508;2022-09-24T00:11:39;9.57;92.16
69823;SHT31;57119;52.516;13.508;2022-09-24T00:14:06;9.51;92.06
69823;SHT31;57119;52.516;13.508;2022-09-24T00:16:32;9.50;92.21
69823;SHT31;57119;52.516;13.508;2022-09-24T00:18:59;9.47;92.33
69823;SHT31;57119;52.516;13.508;2022-09-24T00:21:28;9.46;92.53
69823;SHT31;57119;52.516;13.508;2022-09-24T00:23:56;9.44;92.66
69823;SHT31;57119;52.516;13.508;2022-09-24T00:26:22;9.38;92.67
69823;SHT31;57119;52.516;13.508;2022-09-24T00:29:07;9.33;92.89
69823;SHT31;57119;52.516;13.508;2022-09-24T00:31:33;9.34;92.80
69823;SHT31;57119;52.516;13.508;2022-09-24T00:33:58;9.27;92.77
69823;SHT31;57119;52.516;13.508;2022-09-24T00:36:25;9.23;93.06
69823;SHT31;57119;52.516;13.508;2022-09-24T00:38:53;9.20;93.22
69823;SHT31;57119;52.516;13.508;2022-09-24T00:41:22;9.19;93.19
69823;SHT31;57119;52.516;13.508;2022-09-24T00:43:48;9.15;93.06
69823;SHT31;57119;52.516;13.508;2022-09-24T00:46:33;9.16;93.38
69823;SHT31;57119;52.516;13.508;2022-09-24T00:49:14;9.05;93.58
69823;SHT31;57119;52.516;13.508;2022-09-24T00:51:42;9.03;93.58
69823;SHT31;57119;52.516;13.508;2022-09-24T00:54:12;9.08;93.38
69823;SHT31;57119;52.516;13.508;2022-09-24T00:56:39;9.00;93.25
69823;SHT31;57119;52.516;13.508;2022-09-24T00:59:08;9.06;93.36
69823;SHT31;57119;52.516;13.508;2022-09-24T01:01:36;9.03;93.62
69823;SHT31;57119;52.516;13.508;2022-09-24T01:04:02;9.05;93.62
69823;SHT31;57119;52.516;13.508;2022-09-24T01:06:27;9.08;93.64
69823;SHT31;57119;52.516;13.508;2022-09-24T01:08:55;9.02;93.29
69823;SHT31;57119;52.516;13.508;2022-09-24T01:11:44;9.09;93.54
69823;SHT31;57119;52.516;13.508;2022-09-24T01:22:52;9.16;93.52
69823;SHT31;57119;52.516;13.508;2022-09-24T01:25:40;9.16;93.61
69823;SHT31;57119;52.516;13.508;2022-09-24T01:28:31;9.16;93.95
69823;SHT31;57119;52.516;13.508;2022-09-24T01:31:12;9.12;93.90
69823;SHT31;57119;52.516;13.508;2022-09-24T01:33:41;9.13;94.02
69823;SHT31;57119;52.516;13.508;2022-09-24T01:36:07;9.17;93.65
69823;SHT31;57119;52.516;13.508;2022-09-24T01:38:39;9.24;93.64
69823;SHT31;57119;52.516;13.508;2022-09-24T01:41:08;9.22;93.66
69823;SHT31;57119;52.516;13.508;2022-09-24T01:43:34;9.30;93.58
69823;SHT31;57119;52.516;13.508;2022-09-24T01:46:02;9.34;93.56
69823;SHT31;57119;52.516;13.508;2022-09-24T01:48:28;9.36;93.40
69823;SHT31;57119;52.516;13.508;2022-09-24T01:51:04;9.41;93.36
69823;SHT31;57119;52.516;13.508;2022-09-24T01:53:35;9.51;92.98
69823;SHT31;57119;52.516;13.508;2022-09-24T01:56:07;9.59;93.02
69823;SHT31;57119;52.516;13.508;2022-09-24T01:58:45;9.58;93.13
69823;SHT31;57119;52.516;13.508;2022-09-24T02:01:18;9.57;93.11
69823;SHT31;57119;52.516;13.508;2022-09-24T02:03:51;9.59;93.20
69823;SHT31;57119;52.516;13.508;2022-09-24T02:06:29;9.57;93.09
69823;SHT31;57119;52.516;13.508;2022-09-24T02:08:55;9.59;93.16
69823;SHT31;57119;52.516;13.508;2022-09-24T02:11:22;9.58;92.63
69823;SHT31;57119;52.516;13.508;2022-09-24T02:14:11;9.57;92.22
69823;SHT31;57119;52.516;13.508;2022-09-24T02:16:42;9.67;92.10
69823;SHT31;57119;52.516;13.508;2022-09-24T02:19:15;9.74;92.00
69823;SHT31;57119;52.516;13.508;2022-09-24T02:21:42;9.78;92.24
69823;SHT31;57119;52.516;13.508;2022-09-24T02:27:05;9.73;91.48
69823;SHT31;57119;52.516;13.508;2022-09-24T02:29:30;9.78;91.39
69823;SHT31;57119;52.516;13.508;2022-09-24T02:31:57;9.84;91.71
69823;SHT31;57119;52.516;13.508;2022-09-24T02:34:35;9.86;91.22
69823;SHT31;57119;52.516;13.508;2022-09-24T02:37:10;9.94;91.16
69823;SHT31;57119;52.516;13.508;2022-09-24T02:39:36;9.95;91.16
69823;SHT31;57119;52.516;13.508;2022-09-24T02:42:03;9.99;90.81
69823;SHT31;57119;52.516;13.508;2022-09-24T02:44:33;10.03;90.59
69823;SHT31;57119;52.516;13.508;2022-09-24T02:46:58;10.08;90.20
69823;SHT31;57119;52.516;13.508;2022-09-24T02:49:24;10.03;90.23
69823;SHT31;57119;52.516;13.508;2022-09-24T02:51:50;9.99;90.30
69823;SHT31;57119;52.516;13.508;2022-09-24T02:54:15;10.01;90.33
69823;SHT31;57119;52.516;13.508;2022-09-24T02:56:40;10.01;90.34
69823;SHT31;57119;52.516;13.508;2022-09-24T02:59:06;9.95;90.10
69823;SHT31;57119;52.516;13.508;2022-09-24T03:01:32;9.99;90.43
69823;SHT31;57119;52.516;13.508;2022-09-24T03:03:58;10.03;90.32
69823;SHT31;57119;52.516;13.508;2022-09-24T03:06:23;10.02;90.21
69823;SHT31;57119;52.516;13.508;2022-09-24T03:08:49;9.98;90.31
69823;SHT31;57119;52.516;13.508;2022-09-24T03:11:15;10.09;90.85
69823;SHT31;57119;52.516;13.508;2022-09-24T03:13:40;10.02;90.27
69823;SHT31;57119;52.516;13.508;2022-09-24T03:16:06;10.01;90.49
69823;SHT31;57119;52.516;13.508;2022-09-24T03:18:32;10.09;90.56
69823;SHT31;57119;52.516;13.508;2022-09-24T03:21:00;9.96;90.00
69823;SHT31;57119;52.516;13.508;2022-09-24T03:23:26;10.02;90.21
69823;SHT31;57119;52.516;13.508;2022-09-24T03:25:52;9.86;90.18
69823;SHT31;57119;52.516;13.508;2022-09-24T03:28:17;9.94;90.15
69823;SHT31;57119;52.516;13.508;2022-09-24T03:30:43;10.01;90.01
69823;SHT31;57119;52.516;13.508;2022-09-24T03:33:31;10.09;89.22
69823;SHT31;57119;52.516;13.508;2022-09-24T03:35:59;9.99;89.74
69823;SHT31;57119;52.516;13.508;2022-09-24T03:38:25;9.94;90.11
69823;SHT31;57119;52.516;13.508;2022-09-24T03:40:50;9.89;90.44
69823;SHT31;57119;52.516;13.508;2022-09-24T03:43:16;9.99;90.82
69823;SHT31;57119;52.516;13.508;2022-09-24T03:45:41;10.03;90.09
69823;SHT31;57119;52.516;13.508;2022-09-24T03:48:07;10.02;90.24
69823;SHT31;57119;52.516;13.508;2022-09-24T03:50:35;10.01;90.26
69823;SHT31;57119;52.516;13.508;2022-09-24T03:53:01;10.03;90.09
69823;SHT31;57119;52.516;13.508;2022-09-24T03:55:26;9.94;90.53
69823;SHT31;57119;52.516;13.508;2022-09-24T03:57:51;9.91;91.12
69823;SHT31;57119;52.516;13.508;2022-09-24T04:00:17;9.88;90.60
69823;SHT31;57119;52.516;13.508;2022-09-24T04:02:42;9.92;91.06
69823;SHT31;57119;52.516;13.508;2022-09-24T04:05:08;9.96;91.28
69823;SHT31;57119;52.516;13.508;2022-09-24T04:07:33;9.92;91.26
69823;SHT31;57119;52.516;13.508;2022-09-24T04:09:58;9.89;91.43
69823;SHT31;57119;52.516;13.508;2022-09-24T04:12:24;9.99;91.18
69823;SHT31;57119;52.516;13.508;2022-09-24T04:14:49;9.94;91.29
69823;SHT31;57119;52.516;13.508;2022-09-24T04:17:14;9.88;91.30
69823;SHT31;57119;52.516;13.508;2022-09-24T04:19:41;9.89;91.19
69823;SHT31;57119;52.516;13.508;2022-09-24T04:22:07;9.81;91.29
69823;SHT31;57119;52.516;13.508;2022-09-24T04:24:32;9.79;91.31
69823;SHT31;57119;52.516;13.508;2022-09-24T04:26:58;9.82;91.52
69823;SHT31;57119;52.516;13.508;2022-09-24T04:29:23;9.82;91.87
69823;SHT31;57119;52.516;13.508;2022-09-24T04:31:49;9.84;91.83
69823;SHT31;57119;52.516;13.508;2022-09-24T04:34:14;9.81;91.72
69823;SHT31;57119;52.516;13.508;2022-09-24T04:36:39;9.77;91.99
69823;SHT31;57119;52.516;13.508;2022-09-24T04:39:04;9.81;91.60
69823;SHT31;57119;52.516;13.508;2022-09-24T04:41:30;9.82;91.86
69823;SHT31;57119;52.516;13.508;2022-09-24T04:43:56;9.78;91.99
69823;SHT31;57119;52.516;13.508;2022-09-24T04:46:22;9.65;91.89
69823;SHT31;57119;52.516;13.508;2022-09-24T04:48:47;9.67;91.76
69823;SHT31;57119;52.516;13.508;2022-09-24T04:51:14;9.61;91.62
69823;SHT31;57119;52.516;13.508;2022-09-24T04:53:41;9.70;91.69
69823;SHT31;57119;52.516;13.508;2022-09-24T04:56:06;9.79;92.42
69823;SHT31;57119;52.516;13.508;2022-09-24T04:58:37;9.85;91.90
69823;SHT31;57119;52.516;13.508;2022-09-24T05:01:02;9.92;92.01
69823;SHT31;57119;52.516;13.508;2022-09-24T05:03:28;9.95;91.54
69823;SHT31;57119;52.516;13.508;2022-09-24T05:05:53;9.92;91.44
69823;SHT31;57119;52.516;13.508;2022-09-24T05:08:19;9.94;91.90
69823;SHT31;57119;52.516;13.508;2022-09-24T05:10:45;10.05;92.05
69823;SHT31;57119;52.516;13.508;2022-09-24T05:13:10;10.10;91.71
69823;SHT31;57119;52.516;13.508;2022-09-24T05:15:35;10.08;91.67
69823;SHT31;57119;52.516;13.508;2022-09-24T05:18:01;10.16;90.66
69823;SHT31;57119;52.516;13.508;2022-09-24T05:20:26;10.13;90.82
69823;SHT31;57119;52.516;13.508;2022-09-24T05:22:52;10.03;91.43
69823;SHT31;57119;52.516;13.508;2022-09-24T05:25:19;9.99;92.13
69823;SHT31;57119;52.516;13.508;2022-09-24T05:27:49;10.06;92.21
69823;SHT31;57119;52.516;13.508;2022-09-24T05:30:16;10.15;91.95
69823;SHT31;57119;52.516;13.508;2022-09-24T05:32:42;10.19;91.92
69823;SHT31;57119;52.516;13.508;2022-09-24T05:35:08;10.23;91.24
69823;SHT31;57119;52.516;13.508;2022-09-24T05:37:36;10.20;91.40
69823;SHT31;57119;52.516;13.508;2022-09-24T05:40:03;10.17;91.71
69823;SHT31;57119;52.516;13.508;2022-09-24T05:42:48;10.23;91.49
69823;SHT31;57119;52.516;13.508;2022-09-24T05:45:14;10.22;91.65
69823;SHT31;57119;52.516;13.508;2022-09-24T05:47:45;10.30;91.75
69823;SHT31;57119;52.516;13.508;2022-09-24T05:50:14;10.43;91.59
69823;SHT31;57119;52.516;13.508;2022-09-24T05:52:40;10.54;91.26
69823;SHT31;57119;52.516;13.508;2022-09-24T05:55:07;10.64;90.55
69823;SHT31;57119;52.516;13.508;2022-09-24T05:57:33;10.77;89.79
69823;SHT31;57119;52.516;13.508;2022-09-24T05:59:58;10.80;89.47
69823;SHT31;57119;52.516;13.508;2022-09-24T06:02:23;10.78;89.25
69823;SHT31;57119;52.516;13.508;2022-09-24T06:04:49;10.71;88.59
69823;SHT31;57119;52.516;13.508;2022-09-24T06:07:14;10.91;88.12
69823;SHT31;57119;52.516;13.508;2022-09-24T06:09:39;10.83;87.53
69823;SHT31;57119;52.516;13.508;2022-09-24T06:12:06;10.77;87.83
69823;SHT31;57119;52.516;13.508;2022-09-24T06:14:32;10.84;87.74
69823;SHT31;57119;52.516;13.508;2022-09-24T06:16:57;10.83;87.97
69823;SHT31;57119;52.516;13.508;2022-09-24T06:19:22;10.95;88.40
69823;SHT31;57119;52.516;13.508;2022-09-24T06:21:47;11.00;88.34
69823;SHT31;57119;52.516;13.508;2022-09-24T06:24:25;11.08;88.24
69823;SHT31;57119;52.516;13.508;2022-09-24T06:26:50;11.14;88.06
69823;SHT31;57119;52.516;13.508;2022-09-24T06:29:16;11.00;87.16
69823;SHT31;57119;52.516;13.508;2022-09-24T06:31:41;11.02;87.70
69823;SHT31;57119;52.516;13.508;2022-09-24T06:34:13;11.01;87.20
69823;SHT31;57119;52.516;13.508;2022-09-24T06:36:40;11.21;87.00
69823;SHT31;57119;52.516;13.508;2022-09-24T06:39:06;11.43;87.19
69823;SHT31;57119;52.516;13.508;2022-09-24T06:41:31;11.49;86.68
69823;SHT31;57119;52.516;13.508;2022-09-24T06:43:57;11.40;86.00
69823;SHT31;57119;52.516;13.508;2022-09-24T06:46:22;11.36;85.94
69823;SHT31;57119;52.516;13.508;2022-09-24T06:48:49;11.50;85.30
69823;SHT31;57119;52.516;13.508;2022-09-24T06:51:15;11.46;85.64
69823;SHT31;57119;52.516;13.508;2022-09-24T06:53:40;11.58;85.46
69823;SHT31;57119;52.516;13.508;2022-09-24T06:56:06;11.63;85.60
69823;SHT31;57119;52.516;13.508;2022-09-24T06:58:31;11.50;84.89
69823;SHT31;57119;52.516;13.508;2022-09-24T07:00:59;11.46;85.03
69823;SHT31;57119;52.516;13.508;2022-09-24T07:03:32;11.53;85.15
69823;SHT31;57119;52.516;13.508;2022-09-24T07:06:00;11.50;85.28
69823;SHT31;57119;52.516;13.508;2022-09-24T07:08:26;11.74;85.22
69823;SHT31;57119;52.516;13.508;2022-09-24T07:10:52;11.66;85.03
69823;SHT31;57119;52.516;13.508;2022-09-24T07:13:18;11.50;85.50
69823;SHT31;57119;52.516;13.508;2022-09-24T07:15:47;11.70;85.11
69823;SHT31;57119;52.516;13.508;2022-09-24T07:18:13;11.56;85.66
69823;SHT31;57119;52.516;13.508;2022-09-24T07:20:38;11.40;86.32
69823;SHT31;57119;52.516;13.508;2022-09-24T07:23:05;11.32;86.42
69823;SHT31;57119;52.516;13.508;2022-09-24T07:25:31;11.31;86.65
69823;SHT31;57119;52.516;13.508;2022-09-24T07:28:00;11.58;86.68
69823;SHT31;57119;52.516;13.508;2022-09-24T07:30:26;11.81;86.23
69823;SHT31;57119;52.516;13.508;2022-09-24T07:32:55;11.87;85.29
69823;SHT31;57119;52.516;13.508;2022-09-24T07:35:20;11.79;85.55
69823;SHT31;57119;52.516;13.508;2022-09-24T07:37:45;12.05;84.91
69823;SHT31;57119;52.516;13.508;2022-09-24T07:40:11;12.16;85.10
69823;SHT31;57119;52.516;13.508;2022-09-24T07:42:36;11.98;84.80
69823;SHT31;57119;52.516;13.508;2022-09-24T07:45:03;12.02;84.51
69823;SHT31;57119;52.516;13.508;2022-09-24T07:47:28;12.41;84.12
69823;SHT31;57119;52.516;13.508;2022-09-24T07:49:53;12.59;83.29
69823;SHT31;57119;52.516;13.508;2022-09-24T07:52:19;12.94;83.19
69823;SHT31;57119;52.516;13.508;2022-09-24T07:54:44;12.76;82.43
69823;SHT31;57119;52.516;13.508;2022-09-24T07:57:11;12.72;82.28
69823;SHT31;57119;52.516;13.508;2022-09-24T07:59:38;12.96;81.65
69823;SHT31;57119;52.516;13.508;2022-09-24T08:02:09;13.00;82.21
69823;SHT31;57119;52.516;13.508;2022-09-24T08:04:38;12.82;81.53
69823;SHT31;57119;52.516;13.508;2022-09-24T08:07:03;13.00;82.31
69823;SHT31;57119;52.516;13.508;2022-09-24T08:09:29;13.40;80.97
69823;SHT31;57119;52.516;13.508;2022-09-24T08:11:54;13.44;80.72
69823;SHT31;57119;52.516;13.508;2022-09-24T08:14:19;13.83;79.65
69823;SHT31;57119;52.516;13.508;2022-09-24T08:16:45;13.62;79.49
69823;SHT31;57119;52.516;13.508;2022-09-24T08:19:10;13.99;78.95
69823;SHT31;57119;52.516;13.508;2022-09-24T08:21:38;13.86;78.61
69823;SHT31;57119;52.516;13.508;2022-09-24T08:24:03;14.03;78.99
69823;SHT31;57119;52.516;13.508;2022-09-24T08:26:29;14.02;78.85
69823;SHT31;57119;52.516;13.508;2022-09-24T08:28:54;14.21;78.96
69823;SHT31;57119;52.516;13.508;2022-09-24T08:31:19;14.40;78.80
69823;SHT31;57119;52.516;13.508;2022-09-24T08:33:45;14.06;78.52
69823;SHT31;57119;52.516;13.508;2022-09-24T08:36:15;14.50;77.50
69823;SHT31;57119;52.516;13.508;2022-09-24T08:38:40;14.57;77.34
69823;SHT31;57119;52.516;13.508;2022-09-24T08:44:03;14.45;77.37
69823;SHT31;57119;52.516;13.508;2022-09-24T08:46:39;14.60;76.64
69823;SHT31;57119;52.516;13.508;2022-09-24T08:49:30;14.57;77.06
69823;SHT31;57119;52.516;13.508;2022-09-24T08:54:44;14.61;76.57
69823;SHT31;57119;52.516;13.508;2022-09-24T08:57:13;14.74;76.48
69823;SHT31;57119;52.516;13.508;2022-09-24T08:59:40;14.63;77.19
69823;SHT31;57119;52.516;13.508;2022-09-24T09:07:30;15.23;76.22
69823;SHT31;57119;52.516;13.508;2022-09-24T09:10:00;15.67;76.15
69823;SHT31;57119;52.516;13.508;2022-09-24T09:12:34;15.63;74.56
69823;SHT31;57119;52.516;13.508;2022-09-24T09:15:06;15.53;75.18
69823;SHT31;57119;52.516;13.508;2022-09-24T09:17:44;15.71;74.09
69823;SHT31;57119;52.516;13.508;2022-09-24T09:20:20;16.01;74.33
69823;SHT31;57119;52.516;13.508;2022-09-24T09:22:49;16.49;73.46
69823;SHT31;57119;52.516;13.508;2022-09-24T09:25:26;16.61;72.57
69823;SHT31;57119;52.516;13.508;2022-09-24T09:28:03;16.56;71.71
69823;SHT31;57119;52.516;13.508;2022-09-24T09:30:41;16.45;71.50
69823;SHT31;57119;52.516;13.508;2022-09-24T09:36:24;16.77;70.56
69823;SHT31;57119;52.516;13.508;2022-09-24T09:44:25;16.76;71.52
69823;SHT31;57119;52.516;13.508;2022-09-24T09:49:52;16.92;70.45
69823;SHT31;57119;52.516;13.508;2022-09-24T09:52:23;17.29;69.34
69823;SHT31;57119;52.516;13.508;2022-09-24T09:54:51;17.46;69.83
69823;SHT31;57119;52.516;13.508;2022-09-24T09:57:23;17.36;69.15
69823;SHT31;57119;52.516;13.508;2022-09-24T09:59:51;17.35;68.87
69823;SHT31;57119;52.516;13.508;2022-09-24T10:02:24;17.80;68.89
69823;SHT31;57119;52.516;13.508;2022-09-24T10:04:53;17.42;67.41
69823;SHT31;57119;52.516;13.508;2022-09-24T10:07:19;17.55;67.58
69823;SHT31;57119;52.516;13.508;2022-09-24T10:09:45;17.14;68.69
69823;SHT31;57119;52.516;13.508;2022-09-24T10:14:42;17.25;68.68
69823;SHT31;57119;52.516;13.508;2022-09-24T10:17:16;17.39;68.81
69823;SHT31;57119;52.516;13.508;2022-09-24T10:19:42;17.69;68.70
69823;SHT31;57119;52.516;13.508;2022-09-24T10:22:23;17.91;68.66
69823;SHT31;57119;52.516;13.508;2022-09-24T10:24:49;17.55;68.01
69823;SHT31;57119;52.516;13.508;2022-09-24T10:27:34;17.46;68.04
69823;SHT31;57119;52.516;13.508;2022-09-24T10:30:03;17.38;68.73
69823;SHT31;57119;52.516;13.508;2022-09-24T10:32:56;17.22;67.96
69823;SHT31;57119;52.516;13.508;2022-09-24T10:35:35;17.53;69.24
69823;SHT31;57119;52.516;13.508;2022-09-24T10:38:17;17.46;69.21
69823;SHT31;57119;52.516;13.508;2022-09-24T10:40:43;17.85;68.89
69823;SHT31;57119;52.516;13.508;2022-09-24T10:43:18;17.50;68.26
69823;SHT31;57119;52.516;13.508;2022-09-24T10:46:21;17.35;69.03
69823;SHT31;57119;52.516;13.508;2022-09-24T10:48:54;17.21;68.16
69823;SHT31;57119;52.516;13.508;2022-09-24T10:51:38;17.58;69.45
69823;SHT31;57119;52.516;13.508;2022-09-24T10:54:26;17.12;68.61
69823;SHT31;57119;52.516;13.508;2022-09-24T10:56:59;17.59;68.60
69823;SHT31;57119;52.516;13.508;2022-09-24T10:59:45;17.40;68.54
69823;SHT31;57119;52.516;13.508;2022-09-24T11:05:18;17.90;69.57
69823;SHT31;57119;52.516;13.508;2022-09-24T11:10:57;17.94;68.65
69823;SHT31;57119;52.516;13.508;2022-09-24T11:13:50;17.49;67.50
69823;SHT31;57119;52.516;13.508;2022-09-24T11:16:22;17.79;67.79
69823;SHT31;57119;52.516;13.508;2022-09-24T11:19:19;18.17;67.01
69823;SHT31;57119;52.516;13.508;2022-09-24T11:24:28;17.91;67.31
69823;SHT31;57119;52.516;13.508;2022-09-24T11:30:15;18.28;66.34
69823;SHT31;57119;52.516;13.508;2022-09-24T11:41:10;18.69;63.80
69823;SHT31;57119;52.516;13.508;2022-09-24T11:49:42;19.51;61.37
69823;SHT31;57119;52.516;13.508;2022-09-24T11:52:21;18.49;63.23
69823;SHT31;57119;52.516;13.508;2022-09-24T11:55:01;18.98;62.32
69823;SHT31;57119;52.516;13.508;2022-09-24T11:57:31;18.64;61.97
69823;SHT31;57119;52.516;13.508;2022-09-24T12:00:06;18.45;63.24
69823;SHT31;57119;52.516;13.508;2022-09-24T12:02:41;18.24;63.53
69823;SHT31;57119;52.516;13.508;2022-09-24T12:05:32;17.91;64.83
69823;SHT31;57119;52.516;13.508;2022-09-24T12:08:06;17.91;65.31
69823;SHT31;57119;52.516;13.508;2022-09-24T12:10:45;17.94;65.70
69823;SHT31;57119;52.516;13.508;2022-09-24T12:16:04;17.75;67.45
69823;SHT31;57119;52.516;13.508;2022-09-24T12:18:39;17.85;67.42
69823;SHT31;57119;52.516;13.508;2022-09-24T12:21:12;17.25;66.52
69823;SHT31;57119;52.516;13.508;2022-09-24T12:23:42;17.10;68.30
69823;SHT31;57119;52.516;13.508;2022-09-24T12:26:10;17.32;68.43
69823;SHT31;57119;52.516;13.508;2022-09-24T12:28:55;17.08;69.00
69823;SHT31;57119;52.516;13.508;2022-09-24T12:37:13;17.03;69.36
69823;SHT31;57119;52.516;13.508;2022-09-24T12:40:02;17.31;72.97
69823;SHT31;57119;52.516;13.508;2022-09-24T12:42:39;17.42;74.20
69823;SHT31;57119;52.516;13.508;2022-09-24T12:45:12;17.79;74.04
69823;SHT31;57119;52.516;13.508;2022-09-24T12:47:46;17.85;73.55
69823;SHT31;57119;52.516;13.508;2022-09-24T12:50:22;18.37;73.38
69823;SHT31;57119;52.516;13.508;2022-09-24T12:52:48;18.61;72.22
69823;SHT31;57119;52.516;13.508;2022-09-24T12:55:26;18.91;71.43
69823;SHT31;57119;52.516;13.508;2022-09-24T12:57:59;18.77;70.58
69823;SHT31;57119;52.516;13.508;2022-09-24T13:00:35;18.66;69.04
69823;SHT31;57119;52.516;13.508;2022-09-24T13:03:02;18.59;70.72
69823;SHT31;57119;52.516;13.508;2022-09-24T13:05:32;18.48;71.11
69823;SHT31;57119;52.516;13.508;2022-09-24T13:08:00;18.28;70.59
69823;SHT31;57119;52.516;13.508;2022-09-24T13:10:28;18.44;73.64
69823;SHT31;57119;52.516;13.508;2022-09-24T13:12:56;18.31;71.38
69823;SHT31;57119;52.516;13.508;2022-09-24T13:15:35;18.37;72.66
69823;SHT31;57119;52.516;13.508;2022-09-24T13:18:04;18.40;72.10
69823;SHT31;57119;52.516;13.508;2022-09-24T13:20:31;18.51;72.08
69823;SHT31;57119;52.516;13.508;2022-09-24T13:23:27;18.40;71.69
69823;SHT31;57119;52.516;13.508;2022-09-24T13:26:47;18.44;71.17
69823;SHT31;57119;52.516;13.508;2022-09-24T13:31:26;18.48;71.78
69823;SHT31;57119;52.516;13.508;2022-09-24T13:39:54;18.56;70.22
69823;SHT31;57119;52.516;13.508;2022-09-24T13:42:32;18.59;70.89
69823;SHT31;57119;52.516;13.508;2022-09-24T13:45:19;18.59;72.47
69823;SHT31;57119;52.516;13.508;2022-09-24T13:47:53;18.72;71.71
69823;SHT31;57119;52.516;13.508;2022-09-24T13:50:25;18.62;71.74
69823;SHT31;57119;52.516;13.508;2022-09-24T13:55:26;18.41;72.33
69823;SHT31;57119;52.516;13.508;2022-09-24T13:57:55;18.41;72.11
69823;SHT31;57119;52.516;13.508;2022-09-24T14:00:25;18.66;71.85
69823;SHT31;57119;52.516;13.508;2022-09-24T14:05:35;18.51;71.74
69823;SHT31;57119;52.516;13.508;2022-09-24T14:08:12;18.41;70.72
69823;SHT31;57119;52.516;13.508;2022-09-24T14:10:39;18.41;71.65
69823;SHT31;57119;52.516;13.508;2022-09-24T14:15:33;18.30;71.39
69823;SHT31;57119;52.516;13.508;2022-09-24T14:18:00;18.20;70.98
69823;SHT31;57119;52.516;13.508;2022-09-24T14:20:31;17.93;71.37
69823;SHT31;57119;52.516;13.508;2022-09-24T14:22:57;17.97;72.52
69823;SHT31;57119;52.516;13.508;2022-09-24T14:25:28;17.80;73.13
69823;SHT31;57119;52.516;13.508;2022-09-24T14:27:56;17.83;72.31
69823;SHT31;57119;52.516;13.508;2022-09-24T14:30:25;17.87;73.34
69823;SHT31;57119;52.516;13.508;2022-09-24T14:32:59;17.89;72.63
69823;SHT31;57119;52.516;13.508;2022-09-24T14:35:36;17.76;73.21
69823;SHT31;57119;52.516;13.508;2022-09-24T14:38:05;17.72;73.42
69823;SHT31;57119;52.516;13.508;2022-09-24T14:40:44;17.80;72.96
69823;SHT31;57119;52.516;13.508;2022-09-24T14:46:00;17.65;73.86
69823;SHT31;57119;52.516;13.508;2022-09-24T14:48:31;17.53;72.63
69823;SHT31;57119;52.516;13.508;2022-09-24T14:50:58;17.50;73.62
69823;SHT31;57119;52.516;13.508;2022-09-24T14:53:30;17.40;74.20
69823;SHT31;57119;52.516;13.508;2022-09-24T14:55:57;17.27;74.33
69823;SHT31;57119;52.516;13.508;2022-09-24T15:00:55;17.04;75.25
69823;SHT31;57119;52.516;13.508;2022-09-24T15:03:29;17.03;74.88
69823;SHT31;57119;52.516;13.508;2022-09-24T15:06:05;16.97;75.05
69823;SHT31;57119;52.516;13.508;2022-09-24T15:08:31;16.94;76.24
69823;SHT31;57119;52.516;13.508;2022-09-24T15:11:02;16.83;76.21
69823;SHT31;57119;52.516;13.508;2022-09-24T15:13:33;16.76;74.83
69823;SHT31;57119;52.516;13.508;2022-09-24T15:16:13;16.77;76.20
69823;SHT31;57119;52.516;13.508;2022-09-24T15:18:41;16.71;76.35
69823;SHT31;57119;52.516;13.508;2022-09-24T15:21:06;16.73;76.38
69823;SHT31;57119;52.516;13.508;2022-09-24T15:23:35;16.64;76.58
69823;SHT31;57119;52.516;13.508;2022-09-24T15:26:00;16.46;77.20
69823;SHT31;57119;52.516;13.508;2022-09-24T15:28:25;16.28;76.49
69823;SHT31;57119;52.516;13.508;2022-09-24T15:30:53;16.22;78.13
69823;SHT31;57119;52.516;13.508;2022-09-24T15:33:18;16.23;79.98
69823;SHT31;57119;52.516;13.508;2022-09-24T15:35:44;16.22;79.36
69823;SHT31;57119;52.516;13.508;2022-09-24T15:38:17;16.18;79.83
69823;SHT31;57119;52.516;13.508;2022-09-24T15:40:43;16.19;80.13
69823;SHT31;57119;52.516;13.508;2022-09-24T15:43:22;16.11;79.62
69823;SHT31;57119;52.516;13.508;2022-09-24T15:45:49;16.13;79.93
69823;SHT31;57119;52.516;13.508;2022-09-24T15:48:15;16.13;80.32
69823;SHT31;57119;52.516;13.508;2022-09-24T15:50:41;16.12;80.20
69823;SHT31;57119;52.516;13.508;2022-09-24T15:53:18;16.04;80.31
69823;SHT31;57119;52.516;13.508;2022-09-24T15:55:47;16.00;79.67
69823;SHT31;57119;52.516;13.508;2022-09-24T15:58:14;15.92;79.51
69823;SHT31;57119;52.516;13.508;2022-09-24T16:00:40;15.85;79.66
69823;SHT31;57119;52.516;13.508;2022-09-24T16:03:15;15.83;79.27
69823;SHT31;57119;52.516;13.508;2022-09-24T16:05:41;15.80;80.68
69823;SHT31;57119;52.516;13.508;2022-09-24T16:08:07;15.77;80.69
69823;SHT31;57119;52.516;13.508;2022-09-24T16:10:32;15.68;80.54
69823;SHT31;57119;52.516;13.508;2022-09-24T16:12:57;15.58;81.85
69823;SHT31;57119;52.516;13.508;2022-09-24T16:15:23;15.54;83.07
69823;SHT31;57119;52.516;13.508;2022-09-24T16:17:48;15.54;83.10
69823;SHT31;57119;52.516;13.508;2022-09-24T16:20:17;15.46;82.25
69823;SHT31;57119;52.516;13.508;2022-09-24T16:22:43;15.40;82.45
69823;SHT31;57119;52.516;13.508;2022-09-24T16:25:08;15.36;82.96
69823;SHT31;57119;52.516;13.508;2022-09-24T16:27:33;15.32;84.13
69823;SHT31;57119;52.516;13.508;2022-09-24T16:30:00;15.26;84.24
69823;SHT31;57119;52.516;13.508;2022-09-24T16:32:26;15.12;85.44
69823;SHT31;57119;52.516;13.508;2022-09-24T16:34:51;14.99;86.92
69823;SHT31;57119;52.516;13.508;2022-09-24T16:37:19;14.88;87.36
69823;SHT31;57119;52.516;13.508;2022-09-24T16:39:45;14.72;88.49
69823;SHT31;57119;52.516;13.508;2022-09-24T16:42:10;14.67;88.72
69823;SHT31;57119;52.516;13.508;2022-09-24T16:44:35;14.48;89.66
69823;SHT31;57119;52.516;13.508;2022-09-24T16:47:01;14.34;90.19
69823;SHT31;57119;52.516;13.508;2022-09-24T16:49:26;14.24;90.56
69823;SHT31;57119;52.516;13.508;2022-09-24T16:51:51;14.16;91.46
69823;SHT31;57119;52.516;13.508;2022-09-24T16:54:17;14.12;91.60
69823;SHT31;57119;52.516;13.508;2022-09-24T16:56:44;13.96;92.15
69823;SHT31;57119;52.516;13.508;2022-09-24T16:59:09;13.85;92.64
69823;SHT31;57119;52.516;13.508;2022-09-24T17:01:35;13.71;92.99
69823;SHT31;57119;52.516;13.508;2022-09-24T17:04:00;13.68;93.64
69823;SHT31;57119;52.516;13.508;2022-09-24T17:06:28;13.61;93.78
69823;SHT31;57119;52.516;13.508;2022-09-24T17:08:54;13.58;93.54